Flight Track Log - Related Links

Times and Time Zones

All times are in EDT time to prevent confusion due to time zone crossing. See the ANT507 flight status page for this flight to view local times or setup timezone preferences in your user account.

Time Position Orientation Groundspeed Altitude Reporting Facility
EDT Latitude Longitude Course Direction KTS MPH feet Rate Location/Type
Wed 12:15:00 PM 60.2994 -134.1629 124° Southeast  Level FlightAware Approximate
Wed 12:16:00 PM 60.2374 -133.9774 124° Southeast  Level FlightAware Approximate
Wed 12:17:00 PM 60.1753 -133.7925 124° Southeast  Level FlightAware Approximate
Wed 12:18:00 PM 60.1137 -133.6073 124° Southeast  Level FlightAware Approximate
Wed 12:19:00 PM 60.0510 -133.4239 125° Southeast  Level FlightAware Approximate
Wed 12:20:00 PM 59.9874 -133.2422 125° Southeast  Level FlightAware Approximate
Wed 12:21:00 PM 59.9180 -133.0697 131° Southeast  Level FlightAware Approximate
Wed 12:22:00 PM 59.8525 -132.8958 130° Southeast  Level FlightAware Approximate
Wed 12:23:00 PM 59.7900 -132.7139 122° Southeast  Level FlightAware Approximate
Wed 12:24:00 PM 59.7305 -132.5281 122° Southeast  Level FlightAware Approximate
Wed 12:25:00 PM 59.6679 -132.3468 126° Southeast  Level FlightAware Approximate
Wed 12:26:00 PM 59.6020 -132.1704 126° Southeast  Level FlightAware Approximate
Wed 12:27:00 PM 59.5358 -131.9947 127° Southeast  Level FlightAware Approximate
Wed 12:28:00 PM 59.4699 -131.8189 126° Southeast  Level FlightAware Approximate
Wed 12:29:00 PM 59.4043 -131.6431 126° Southeast  Level FlightAware Approximate
Wed 12:30:00 PM 59.3384 -131.4680 126° Southeast  Level FlightAware Approximate
Wed 12:31:00 PM 59.2723 -131.2935 127° Southeast  Level FlightAware Approximate
Wed 12:32:00 PM 59.2060 -131.1198 127° Southeast  Level FlightAware Approximate
Wed 12:33:00 PM 59.1394 -130.9467 127° Southeast  Level FlightAware Approximate
Wed 12:34:00 PM 59.0727 -130.7742 127° Southeast  Level FlightAware Approximate
Wed 12:35:00 PM 59.0056 -130.6025 127° Southeast  Level FlightAware Approximate
Wed 12:36:00 PM 58.9384 -130.4314 127° Southeast  Level FlightAware Approximate
Wed 12:37:00 PM 58.8709 -130.2610 127° Southeast  Level FlightAware Approximate
Wed 12:38:00 PM 58.8032 -130.0912 128° Southeast  Level FlightAware Approximate
Wed 12:39:00 PM 58.7389 -129.9172 123° Southeast  Level FlightAware Approximate
Wed 12:40:00 PM 58.6786 -129.7381 123° Southeast  Level FlightAware Approximate
Wed 12:41:00 PM 58.6180 -129.5596 123° Southeast  Level FlightAware Approximate
Wed 12:42:00 PM 58.5571 -129.3817 123° Southeast  Level FlightAware Approximate
Wed 12:43:00 PM 58.4961 -129.2044 123° Southeast  Level FlightAware Approximate
Wed 12:44:00 PM 58.4347 -129.0277 124° Southeast  Level FlightAware Approximate
Wed 12:45:00 PM 58.3731 -128.8517 124° Southeast  Level FlightAware Approximate
Wed 12:46:00 PM 58.3113 -128.6763 124° Southeast  Level FlightAware Approximate
Wed 12:47:00 PM 58.2493 -128.5014 124° Southeast  Level FlightAware Approximate
Wed 12:48:00 PM 58.1870 -128.3272 124° Southeast  Level FlightAware Approximate
Wed 12:49:00 PM 58.1245 -128.1536 124° Southeast  Level FlightAware Approximate
Wed 12:50:00 PM 58.0617 -127.9807 124° Southeast  Level FlightAware Approximate
Wed 12:51:00 PM 57.9987 -127.8083 125° Southeast  Level FlightAware Approximate
Wed 12:52:00 PM 57.9355 -127.6365 125° Southeast  Level FlightAware Approximate
Wed 12:53:00 PM 57.8720 -127.4653 125° Southeast  Level FlightAware Approximate
Wed 12:54:00 PM 57.8083 -127.2948 125° Southeast  Level FlightAware Approximate
Wed 12:55:00 PM 57.7444 -127.1248 125° Southeast  Level FlightAware Approximate
Wed 12:56:00 PM 57.6803 -126.9555 125° Southeast  Level FlightAware Approximate
Wed 12:57:00 PM 57.6159 -126.7867 125° Southeast  Level FlightAware Approximate
Wed 12:58:00 PM 57.5513 -126.6186 126° Southeast  Level FlightAware Approximate
Wed 12:59:00 PM 57.4865 -126.4510 126° Southeast  Level FlightAware Approximate
Wed 01:00:00 PM 57.4203 -126.2856 127° Southeast  Level FlightAware Approximate
Wed 01:01:00 PM 57.3533 -126.1216 127° Southeast  Level FlightAware Approximate
Wed 01:02:00 PM 57.2862 -125.9581 127° Southeast  Level FlightAware Approximate
Wed 01:03:00 PM 57.2188 -125.7952 127° Southeast  Level FlightAware Approximate
Wed 01:04:00 PM 57.1513 -125.6329 127° Southeast  Level FlightAware Approximate
Wed 01:04:55 PM 57.0833 -125.6000 127° Southeast 470 541 37,000  Level Edmonton Center
Wed 01:05:00 PM 57.0835 -125.4713 128° Southeast  Level FlightAware Approximate
Wed 01:05:55 PM 57.0167 -125.4333 126° Southeast 430 495 37,000  Level Edmonton Center
Wed 01:06:00 PM 57.0155 -125.3102 128° Southeast  Level FlightAware Approximate
Wed 01:06:55 PM 56.9500 -125.2333 121° Southeast 420 483 37,000  Level Edmonton Center
Wed 01:07:00 PM 56.9473 -125.1497 128° Southeast  Level FlightAware Approximate
Wed 01:07:55 PM 56.8833 -125.1000 132° Southeast 420 483 37,000  Level Edmonton Center
Wed 01:08:00 PM 56.8791 -124.9896 127° Southeast  Level FlightAware Approximate
Wed 01:08:55 PM 56.8000 -124.9000 127° Southeast 420 483 37,000  Level Edmonton Center
Wed 01:09:00 PM 56.8123 -124.8277 127° Southeast  Level FlightAware Approximate
Wed 01:09:55 PM 56.7500 -124.7333 119° Southeast 410 472 37,000  Level Edmonton Center
Wed 01:10:00 PM 56.7453 -124.6664 127° Southeast  Level FlightAware Approximate
Wed 01:10:55 PM 56.6667 -124.5667 132° Southeast 410 472 37,000  Level Edmonton Center
Wed 01:11:55 PM 56.6000 -124.4000 126° Southeast 410 472 37,000  Level Edmonton Center
Wed 01:12:55 PM 56.5333 -124.2333 126° Southeast 410 472 37,000  Level Edmonton Center
Wed 01:13:55 PM 56.4500 -124.0667 132° Southeast 410 472 37,000  Level Edmonton Center
Wed 01:14:55 PM 56.3833 -123.9000 126° Southeast 410 472 37,000  Level Edmonton Center
Wed 01:15:55 PM 56.3167 -123.7333 126° Southeast 420 483 37,000  Level Edmonton Center
Wed 01:16:55 PM 56.2500 -123.5833 129° Southeast 410 472 37,000  Level Edmonton Center
Wed 01:17:55 PM 56.1667 -123.4167 132° Southeast 420 483 37,000  Level Edmonton Center
Wed 01:18:55 PM 56.0833 -123.2500 132° Southeast 420 483 37,000  Level Edmonton Center
Wed 01:19:55 PM 56.0167 -123.0833 126° Southeast 410 472 37,000  Level Edmonton Center
Wed 01:20:55 PM 55.9500 -122.9333 128° Southeast 420 483 37,000  Level Edmonton Center
Wed 01:21:55 PM 55.8667 -122.7667 132° Southeast 420 483 37,000  Level Edmonton Center
Wed 01:22:55 PM 55.8000 -122.6167 128° Southeast 420 483 37,000  Level Edmonton Center
Wed 01:23:55 PM 55.7167 -122.4500 132° Southeast 420 483 37,000  Level Edmonton Center
Wed 01:24:55 PM 55.6333 -122.2833 131° Southeast 420 483 37,000  Level Edmonton Center
Wed 01:25:55 PM 55.5833 -122.1333 120° Southeast 410 472 37,000  Level Edmonton Center
Wed 01:26:55 PM 55.5167 -121.9833 128° Southeast 410 472 37,000  Level Edmonton Center
Wed 01:27:55 PM 55.4333 -121.8167 131° Southeast 410 472 37,000  Level Edmonton Center
Wed 01:28:55 PM 55.3500 -121.6333 129° Southeast 420 483 37,000  Level Edmonton Center
Wed 01:29:55 PM 55.2833 -121.4833 128° Southeast 410 472 37,000  Level Edmonton Center
Wed 01:30:55 PM 55.2000 -121.3333 134° Southeast 410 472 37,000  Level Edmonton Center
Wed 01:31:55 PM 55.1167 -121.1667 131° Southeast 410 472 37,000  Level Edmonton Center
Wed 01:32:55 PM 55.0500 -121.0167 128° Southeast 410 472 37,000  Level Edmonton Center
Wed 01:33:55 PM 54.9833 -120.8667 128° Southeast 410 472 37,000  Level Edmonton Center
Wed 01:34:55 PM 54.9167 -120.7167 128° Southeast 410 472 37,000  Level Edmonton Center
Wed 01:35:55 PM 54.8333 -120.5667 134° Southeast 410 472 37,000  Level Edmonton Center
Wed 01:36:55 PM 54.7667 -120.4167 128° Southeast 410 472 37,000  Level Edmonton Center
Wed 01:37:55 PM 54.6833 -120.2667 134° Southeast 410 472 37,000  Level Edmonton Center
Wed 01:38:55 PM 54.6167 -120.1167 127° Southeast 410 472 37,000  Level Edmonton Center
Wed 01:39:55 PM 54.5333 -119.9667 134° Southeast 410 472 37,000  Level Edmonton Center
Wed 01:40:55 PM 54.4500 -119.8167 134° Southeast 410 472 37,000  Level Edmonton Center
Wed 01:41:55 PM 54.3667 -119.6667 134° Southeast 410 472 37,000  Level Edmonton Center
Wed 01:42:55 PM 54.3000 -119.5333 131° Southeast 410 472 37,000  Level Edmonton Center
Wed 01:43:55 PM 54.2167 -119.3833 134° Southeast 410 472 37,000  Level Edmonton Center
Wed 01:44:55 PM 54.1333 -119.2333 133° Southeast 410 472 37,000  Level Edmonton Center
Wed 01:45:55 PM 54.0667 -119.0833 127° Southeast 410 472 37,000  Level Edmonton Center
Wed 01:46:55 PM 53.9833 -118.9333 133° Southeast 410 472 37,000  Level Edmonton Center
Wed 01:47:55 PM 53.9167 -118.8000 130° Southeast 410 472 37,000  Level Edmonton Center
Wed 01:49:00 PM 53.8374 -118.6468 131° Southeast  Level FlightAware Approximate
Wed 01:49:55 PM 53.7667 -118.5167 131° Southeast 410 472 37,000  Level Edmonton Center
Wed 01:50:55 PM 53.6667 -118.3667 138° Southeast 410 472 37,000  Level Edmonton Center
Wed 01:51:55 PM 53.6000 -118.2333 130° Southeast 410 472 37,000  Level Edmonton Center
Wed 01:52:55 PM 53.5167 -118.0833 133° Southeast 410 472 37,000  Level Edmonton Center
Wed 01:53:55 PM 53.4500 -117.9500 130° Southeast 410 472 37,000  Level Edmonton Center
Wed 01:54:55 PM 53.3667 -117.8000 133° Southeast 410 472 37,000  Level Edmonton Center
Wed 01:55:55 PM 53.2833 -117.6667 136° Southeast 410 472 37,000  Level Edmonton Center
Wed 01:56:55 PM 53.2000 -117.5333 136° Southeast 410 472 37,000  Level Edmonton Center
Wed 01:57:55 PM 53.1333 -117.3833 126° Southeast 420 483 37,000  Level Edmonton Center
Wed 01:58:55 PM 53.0500 -117.2500 136° Southeast 410 472 37,000  Level Edmonton Center
Wed 01:59:55 PM 52.9667 -117.1167 136° Southeast 410 472 37,000  Level Edmonton Center
Wed 02:00:55 PM 52.8833 -116.9667 133° Southeast 410 472 37,000  Level Edmonton Center
Wed 02:01:55 PM 52.8000 -116.8333 136° Southeast 410 472 37,000  Level Edmonton Center
Wed 02:02:55 PM 52.7333 -116.7000 130° Southeast 410 472 37,000  Level Edmonton Center
Wed 02:03:55 PM 52.6333 -116.5333 135° Southeast 410 472 37,000  Level Edmonton Center
Wed 02:04:55 PM 52.5667 -116.4000 129° Southeast 410 472 37,000  Level Edmonton Center
Wed 02:05:55 PM 52.4833 -116.2667 136° Southeast 420 483 37,000  Level Edmonton Center
Wed 02:06:55 PM 52.4167 -116.1333 129° Southeast 410 472 37,000  Level Edmonton Center
Wed 02:07:55 PM 52.3167 -116.0000 141° Southeast 410 472 37,000 -700 Level Edmonton Center
Wed 02:08:55 PM 52.2500 -115.8667 129° Southeast 410 472 35,600 -2,400 Descending Edmonton Center
Wed 02:09:55 PM 52.1500 -115.7333 141° Southeast 410 472 32,200 -2,950 Descending Edmonton Center
Wed 02:10:55 PM 52.0833 -115.6000 129° Southeast 410 472 29,700 -2,450 Descending Edmonton Center
Wed 02:11:55 PM 52.0167 -115.4833 133° Southeast 390 449 27,300 -2,300 Descending Edmonton Center
Wed 02:12:55 PM 51.9333 -115.3833 143° Southeast 380 437 25,100 -2,150 Descending Edmonton Center
Wed 02:13:55 PM 51.8667 -115.2500 129° Southeast 360 414 23,000 -2,100 Descending Edmonton Center
Wed 02:14:55 PM 51.7833 -115.1500 143° Southeast 350 403 20,900 -2,050 Descending Edmonton Center
Wed 02:15:55 PM 51.7333 -115.0500 129° Southeast 340 391 18,900 -2,000 Descending Edmonton Center
Wed 02:16:55 PM 51.6500 -114.9500 143° Southeast 320 368 16,900 -1,900 Descending Edmonton Center
Wed 02:17:55 PM 51.5667 -114.8833 154° Southeast 310 357 15,100 -2,000 Descending Edmonton Center
Wed 02:18:55 PM 51.5000 -114.8000 142° Southeast 310 357 12,900 -2,050 Descending Edmonton Center
Wed 02:19:55 PM 51.4500 -114.6833 124° Southeast 310 357 11,000 -1,600 Descending Edmonton Center
Wed 02:20:55 PM 51.4167 -114.6000 123° Southeast 300 345 9,700 -1,300 Descending Edmonton Center
Wed 02:21:55 PM 51.3333 -114.5000 143° Southeast 280 322 8,400 -900 Descending Edmonton Center
Wed 02:22:55 PM 51.2667 -114.4500 155° Southeast 280 322 7,900 -250 Descending Edmonton Center
Wed 02:23:55 PM 51.2167 -114.3833 140° Southeast 230 265 7,900 -400 Level Edmonton Center
Wed 02:24:55 PM 51.1833 -114.3167 129° Southeast 190 219 7,100 -900 Descending Edmonton Center
Wed 02:25:55 PM 51.1667 -114.2333 108° East 190 219 6,100 -1,000 Descending Edmonton Center
Wed 02:26:55 PM 51.1333 -114.1833 137° Southeast 180 207 5,100 -833 Descending Edmonton Center
Wed 02:28:55 PM 51.1000 -114.0667 114° Southeast 140 161 3,600 -750 Descending Edmonton Center

Login

Don't have an account? Register now (free) for customized features, flight alerts, and more!